Aviation Digital Data Service (ADDS)

Output produced by METARs form (0641 UTC 27 March 2017)
found at http://www.aviationweather.gov/adds/metars/
 
TAF COR LOXA 270515Z 2706/2715 VRB03KT 9999 FEW300 
     TEMPO 2710/2715 04007KT FEW060
       
LOWG 270620Z VRB01KT CAVOK 01/M03 Q1028 NOSIG
TAF LOWG 270515Z 2706/2806 VRB02KT CAVOK TX14/2713Z TNM02/2803Z 
     TEMPO 2709/2716 15007KT
       
LOWI 270620Z 25003KT CAVOK 01/M01 Q1025 NOSIG
TAF LOWI 270515Z 2706/2806 VRB02KT CAVOK TX19/2713Z TN00/2806Z 
     BECMG 2708/2710 09007KT 
     TEMPO 2710/2716 09010G20KT 
     BECMG 2716/2718 VRB02KT CAVOK
       
LOWK 270620Z 29002KT CAVOK 01/M03 Q1028 NOSIG
TAF LOWK 270515Z 2706/2806 VRB02KT CAVOK TX13/2715Z TNM01/2706Z
       
LOWL 270620Z 10006KT CAVOK 03/M03 Q1027 NOSIG
TAF LOWL 270515Z 2706/2806 09007KT CAVOK TX13/2714Z TN01/2706Z 
     TEMPO 2706/2716 10015KT
       
LOWS 270620Z 03002KT CAVOK 01/M02 Q1025 NOSIG
TAF LOWS 270515Z 2706/2806 15004KT CAVOK TX15/2714Z TN00/2706Z 
     BECMG 2708/2710 03007KT 
     BECMG 2716/2718 16005KT
       
LOWW 270620Z VRB01KT CAVOK 03/M01 Q1028 NOSIG
TAF LOWW 270515Z 2706/2812 36005KT CAVOK TX16/2812Z TNM01/2706Z 
     BECMG 2715/2718 17004KT
       
TAF LOXT 270515Z 2706/2715 VRB03KT 9999 FEW300 
     BECMG 2709/2711 05006KT
       
LOAN 270600Z 26005KT 45KM SKC
TAF LOAN 270600Z 2706/2715 26005KT 9999 FEW300
       
TAF LOXN 270515Z 2706/2715 VRB03KT 9999 FEW300 
     BECMG 2710/2712 05006KT
       
LOXZ 270620Z VRB01KT 40KM FEW300CI M02/M05 Q1027 NOSIG
TAF LOXZ 270515Z 2706/2715 VRB03KT 9999 SCT350 
     TEMPO 2710/2715 10010KT